Time;durP1;ratioP1;P1;durP2;ratioP2;P2;SDS_P1;SDS_P2;PMS_P1;PMS_P2;Temp;Humidity;BMP_temperature;BMP_pressure;BME280_temperature;BME280_humidity;BME280_pressure;Samples;Min_cycle;Max_cycle;Signal;HPM_P1;HPM_P2
2024/04/02 00:01:03;;;;;;;5.80;1.23;;;11.50;98.70;;;;;;5074178;28;20544;-58
2024/04/02 00:03:29;;;;;;;2.43;0.70;;;11.40;98.70;;;;;;5073680;28;20191;-57
2024/04/02 00:05:55;;;;;;;0.80;0.80;;;11.50;98.60;;;;;;5074148;28;20855;-57
2024/04/02 00:08:21;;;;;;;1.87;0.70;;;11.50;98.60;;;;;;5073607;28;20222;-57
2024/04/02 00:10:50;;;;;;;1.63;0.70;;;11.50;98.70;;;;;;5073986;28;20535;-57
2024/04/02 00:13:16;;;;;;;1.13;0.67;;;11.40;98.80;;;;;;5074070;28;20460;-57
2024/04/02 00:15:45;;;;;;;2.70;0.67;;;11.50;99.00;;;;;;5074227;28;20524;-57
2024/04/02 00:18:12;;;;;;;2.20;0.83;;;11.40;98.90;;;;;;5073745;28;20336;-56
2024/04/02 00:20:38;;;;;;;1.63;0.67;;;11.40;99.00;;;;;;5073873;28;20444;-57
2024/04/02 00:23:05;;;;;;;1.93;0.90;;;11.40;99.20;;;;;;5073549;28;20866;-57
2024/04/02 00:25:31;;;;;;;4.13;0.73;;;11.40;99.00;;;;;;5073610;28;20208;-57
2024/04/02 00:27:59;;;;;;;2.60;0.90;;;11.40;98.90;;;;;;5073586;28;20476;-57
2024/04/02 00:30:26;;;;;;;2.53;0.70;;;11.40;99.10;;;;;;5073267;28;20209;-57
2024/04/02 00:32:53;;;;;;;0.73;0.70;;;11.30;99.00;;;;;;5073699;28;20527;-57
2024/04/02 00:35:19;;;;;;;1.23;0.93;;;11.30;99.00;;;;;;5073618;28;20510;-57
2024/04/02 00:37:47;;;;;;;4.60;0.80;;;11.30;99.10;;;;;;5073524;28;20835;-56
2024/04/02 00:40:14;;;;;;;2.63;1.17;;;11.30;99.20;;;;;;5073224;28;20487;-56
2024/04/02 00:42:41;;;;;;;2.43;0.60;;;11.20;99.20;;;;;;5073530;28;20912;-57
2024/04/02 00:45:08;;;;;;;2.43;0.90;;;11.10;99.30;;;;;;5073148;28;20809;-57
2024/04/02 00:47:35;;;;;;;3.37;1.57;;;11.10;99.40;;;;;;5073045;28;21009;-57
2024/04/02 00:50:03;;;;;;;4.10;0.70;;;11.10;99.60;;;;;;5073390;28;20531;-57
2024/04/02 00:52:30;;;;;;;1.20;0.80;;;11.10;99.70;;;;;;5073354;28;20444;-57
2024/04/02 00:54:56;;;;;;;5.03;1.00;;;11.00;99.60;;;;;;5073130;28;20821;-57
2024/04/02 00:57:23;;;;;;;2.97;0.90;;;11.00;99.80;;;;;;5073256;28;20495;-57
2024/04/02 00:59:50;;;;;;;2.67;0.90;;;11.00;99.70;;;;;;5073317;28;20471;-56
2024/04/02 01:02:18;;;;;;;2.73;1.03;;;10.90;99.90;;;;;;5073418;28;20797;-57
2024/04/02 01:04:47;;;;;;;1.67;1.00;;;11.00;99.90;;;;;;5073019;28;20449;-57
2024/04/02 01:07:15;;;;;;;2.90;1.00;;;11.00;99.80;;;;;;5072827;28;21076;-57
2024/04/02 01:09:42;;;;;;;1.43;0.90;;;11.00;99.80;;;;;;5072792;28;20955;-57
2024/04/02 01:12:09;;;;;;;3.80;1.20;;;11.00;99.80;;;;;;5073205;28;20445;-57
2024/04/02 01:14:38;;;;;;;1.53;1.00;;;11.00;99.90;;;;;;5072856;28;20816;-57
2024/04/02 01:17:05;;;;;;;1.23;0.50;;;11.00;99.90;;;;;;5077210;28;20467;-57
2024/04/02 01:19:32;;;;;;;2.77;0.90;;;11.00;99.90;;;;;;5077270;28;20447;-57
2024/04/02 01:21:59;;;;;;;7.47;1.30;;;11.00;99.90;;;;;;5077541;28;20472;-57
2024/04/02 01:24:26;;;;;;;1.53;0.70;;;11.00;99.90;;;;;;5077233;28;20450;-57
2024/04/02 01:26:54;;;;;;;3.53;1.43;;;11.00;99.90;;;;;;5076854;28;20530;-56
2024/04/02 01:29:20;;;;;;;4.80;1.03;;;11.00;99.90;;;;;;5077220;28;20861;-56
2024/04/02 01:31:46;;;;;;;1.67;0.90;;;11.00;99.90;;;;;;5076826;28;20444;-57
2024/04/02 01:34:13;;;;;;;3.80;1.00;;;11.00;99.90;;;;;;5077211;28;20217;-57
2024/04/02 01:36:40;;;;;;;2.03;0.90;;;11.00;99.90;;;;;;5077013;28;20452;-57
2024/04/02 01:39:07;;;;;;;1.03;0.80;;;11.00;99.90;;;;;;5076769;28;20445;-57
2024/04/02 01:41:34;;;;;;;2.40;0.90;;;11.00;99.90;;;;;;5076730;28;20948;-57
2024/04/02 01:44:01;;;;;;;2.03;0.80;;;11.00;99.90;;;;;;5076967;28;20519;-57
2024/04/02 01:46:28;;;;;;;3.03;0.87;;;11.00;99.90;;;;;;5076716;28;20840;-56
2024/04/02 01:48:55;;;;;;;3.37;0.90;;;11.10;99.90;;;;;;5076528;28;20863;-56
2024/04/02 01:51:22;;;;;;;2.23;0.90;;;11.10;99.90;;;;;;5076693;28;20467;-57
2024/04/02 01:53:48;;;;;;;3.13;1.00;;;11.10;99.90;;;;;;5076524;28;20440;-57
2024/04/02 01:56:15;;;;;;;2.70;1.37;;;11.10;99.90;;;;;;5076627;28;20442;-57
2024/04/02 01:58:40;;;;;;;3.10;0.90;;;11.10;99.90;;;;;;5076441;28;20222;-57
2024/04/02 02:01:08;;;;;;;1.00;0.90;;;11.10;99.90;;;;;;5076208;28;20815;-57
2024/04/02 02:03:34;;;;;;;2.23;1.10;;;11.10;99.90;;;;;;5076524;28;20574;-57
2024/04/02 02:06:01;;;;;;;3.10;1.00;;;11.20;99.90;;;;;;5076377;28;20452;-57
2024/04/02 02:08:27;;;;;;;2.93;1.30;;;11.20;99.90;;;;;;5075978;28;20602;-57
2024/04/02 02:10:55;;;;;;;2.00;1.03;;;11.20;99.90;;;;;;5076282;28;20440;-57
2024/04/02 02:13:21;;;;;;;3.23;1.10;;;11.20;99.90;;;;;;5076121;28;20202;-57
2024/04/02 02:15:58;;;;;;;5.47;1.10;;;11.10;99.90;;;;;;5076233;28;20499;-57
2024/04/02 02:18:25;;;;;;;3.63;0.97;;;11.10;99.90;;;;;;5075772;28;20712;-57
2024/04/02 02:20:52;;;;;;;2.83;1.33;;;11.10;99.90;;;;;;5076170;28;20480;-57
2024/04/02 02:23:19;;;;;;;2.60;1.20;;;11.20;99.90;;;;;;5075891;28;20935;-57
2024/04/02 02:25:46;;;;;;;2.20;0.80;;;11.10;99.90;;;;;;5075718;28;20949;-57
2024/04/02 02:28:11;;;;;;;4.80;1.43;;;11.10;99.90;;;;;;5074558;28;20495;-57
2024/04/02 02:30:38;;;;;;;3.10;1.87;;;11.10;99.90;;;;;;5075941;28;20444;-57
2024/04/02 02:33:04;;;;;;;1.40;1.07;;;11.10;99.90;;;;;;5075716;28;20213;-57
2024/04/02 02:35:33;;;;;;;4.90;1.20;;;11.10;99.90;;;;;;5075957;28;20853;-57
2024/04/02 02:37:58;;;;;;;3.03;1.03;;;11.00;99.90;;;;;;5075770;28;20467;-57
2024/04/02 02:40:25;;;;;;;2.60;1.00;;;11.00;99.90;;;;;;5075466;28;20539;-57
2024/04/02 02:42:51;;;;;;;3.17;1.00;;;11.00;99.90;;;;;;5075558;28;20206;-57
2024/04/02 02:45:18;;;;;;;9.20;1.83;;;11.00;99.90;;;;;;5075765;28;20467;-57
2024/04/02 02:47:44;;;;;;;1.70;1.00;;;11.00;99.90;;;;;;5075779;28;20226;-57
2024/04/02 02:50:10;;;;;;;2.27;0.90;;;10.90;99.90;;;;;;5075767;28;20451;-57
2024/04/02 02:52:37;;;;;;;3.67;1.30;;;10.90;99.90;;;;;;5075898;28;20198;-57
2024/04/02 02:55:05;;;;;;;1.97;1.10;;;10.90;99.90;;;;;;5075733;28;20822;-57
2024/04/02 02:57:31;;;;;;;2.10;1.23;;;10.90;99.90;;;;;;5075343;28;20460;-59
2024/04/02 02:59:57;;;;;;;5.13;1.70;;;10.90;99.90;;;;;;5075531;28;20455;-57
2024/04/02 03:02:23;;;;;;;1.50;0.90;;;10.90;99.90;;;;;;5075406;28;20202;-58
2024/04/02 03:04:51;;;;;;;2.83;1.27;;;10.90;99.90;;;;;;5075381;28;20449;-58
2024/04/02 03:07:17;;;;;;;1.43;0.90;;;10.90;99.90;;;;;;5074875;28;20652;-57
2024/04/02 03:09:45;;;;;;;2.60;1.03;;;10.90;99.90;;;;;;5075086;28;20441;-58
2024/04/02 03:12:11;;;;;;;4.10;1.20;;;10.90;99.90;;;;;;5074953;28;20439;-57
2024/04/02 03:14:38;;;;;;;1.53;0.93;;;10.90;99.90;;;;;;5074839;28;20476;-57
2024/04/02 03:17:04;;;;;;;2.80;1.23;;;10.90;99.90;;;;;;5075053;28;20456;-57
2024/04/02 03:19:31;;;;;;;3.30;1.00;;;10.80;99.90;;;;;;5074984;28;20449;-57
2024/04/02 03:21:57;;;;;;;4.07;1.20;;;10.80;99.90;;;;;;5075073;28;20471;-57
2024/04/02 03:24:24;;;;;;;2.23;1.47;;;10.80;99.90;;;;;;5075037;28;20441;-58
2024/04/02 03:26:51;;;;;;;2.10;1.20;;;10.80;99.90;;;;;;5074705;28;20484;-57
2024/04/02 03:29:17;;;;;;;3.70;1.30;;;10.80;99.90;;;;;;5074873;28;20429;-57
2024/04/02 03:31:46;;;;;;;4.77;1.70;;;10.80;99.90;;;;;;5074820;28;20440;-57
2024/04/02 03:34:13;;;;;;;2.40;1.10;;;10.80;99.90;;;;;;5074695;28;20444;-58
2024/04/02 03:36:39;;;;;;;5.70;1.27;;;10.80;99.90;;;;;;5074590;28;20452;-57
2024/04/02 03:39:07;;;;;;;4.10;1.30;;;10.80;99.90;;;;;;5074447;28;20440;-57
2024/04/02 03:41:36;;;;;;;6.80;1.37;;;10.80;99.90;;;;;;5074631;28;20202;-58
2024/04/02 03:44:04;;;;;;;3.40;1.10;;;10.80;99.90;;;;;;5074180;28;20845;-58
2024/04/02 03:46:30;;;;;;;4.27;0.90;;;10.80;99.90;;;;;;5074393;28;20445;-58
2024/04/02 03:48:57;;;;;;;4.67;1.40;;;10.80;99.90;;;;;;5074398;28;20475;-58
2024/04/02 03:51:23;;;;;;;6.57;1.27;;;10.80;99.90;;;;;;5074106;28;20624;-58
2024/04/02 03:53:50;;;;;;;5.17;1.60;;;10.90;99.90;;;;;;5074624;28;20445;-58
2024/04/02 03:56:16;;;;;;;3.00;1.20;;;10.90;99.90;;;;;;5074179;28;20202;-58
2024/04/02 03:58:43;;;;;;;2.93;0.90;;;10.90;99.90;;;;;;5074180;28;20503;-57
2024/04/02 04:01:11;;;;;;;2.67;1.10;;;10.90;99.90;;;;;;5075021;28;20536;-57
2024/04/02 04:03:37;;;;;;;2.60;1.10;;;10.90;99.90;;;;;;5074274;28;20467;-58
2024/04/02 04:06:05;;;;;;;2.70;0.90;;;10.90;99.90;;;;;;5074023;28;21021;-57
2024/04/02 04:08:32;;;;;;;1.70;0.93;;;10.90;99.90;;;;;;5073738;28;20700;-58
2024/04/02 04:10:59;;;;;;;1.73;1.10;;;10.90;99.90;;;;;;5073592;28;20444;-59
2024/04/02 04:13:26;;;;;;;2.53;0.70;;;10.90;99.90;;;;;;5074021;28;20502;-59
2024/04/02 04:15:53;;;;;;;2.30;1.13;;;11.00;99.90;;;;;;5074021;28;20496;-59
2024/04/02 04:18:22;;;;;;;1.77;1.03;;;11.00;99.90;;;;;;5073767;28;20764;-60
2024/04/02 04:20:51;;;;;;;3.10;1.30;;;11.00;99.90;;;;;;5073813;28;20858;-60
2024/04/02 04:23:18;;;;;;;2.57;1.40;;;10.90;99.90;;;;;;5073988;28;20856;-60
2024/04/02 04:25:44;;;;;;;7.53;1.37;;;10.90;99.90;;;;;;5073719;28;20523;-60
2024/04/02 04:28:11;;;;;;;4.40;1.20;;;10.90;99.90;;;;;;5073216;28;20583;-60
2024/04/02 04:30:37;;;;;;;6.13;1.60;;;10.90;99.90;;;;;;5073663;28;20208;-60
2024/04/02 04:33:04;;;;;;;3.63;1.53;;;11.00;99.90;;;;;;5073696;28;20528;-60
2024/04/02 04:35:33;;;;;;;2.07;1.20;;;11.00;99.90;;;;;;5073705;28;20206;-60
2024/04/02 04:38:00;;;;;;;2.17;1.00;;;11.00;99.90;;;;;;5073610;28;20472;-59
2024/04/02 04:40:25;;;;;;;4.50;1.40;;;11.10;99.90;;;;;;5073524;28;20441;-59
2024/04/02 04:42:52;;;;;;;3.77;1.13;;;11.10;99.90;;;;;;5073544;28;20446;-59
2024/04/02 04:45:18;;;;;;;2.23;1.10;;;11.10;99.90;;;;;;5073494;28;20202;-59
2024/04/02 04:47:45;;;;;;;2.33;1.00;;;11.00;99.90;;;;;;5073073;28;20572;-59
2024/04/02 04:50:11;;;;;;;4.37;1.20;;;11.10;99.90;;;;;;5072568;28;20212;-59
2024/04/02 04:52:39;;;;;;;4.93;1.77;;;11.00;99.90;;;;;;5073073;28;20440;-59
2024/04/02 04:55:05;;;;;;;4.00;1.53;;;11.00;99.90;;;;;;5073355;28;20198;-59
2024/04/02 04:57:32;;;;;;;2.87;1.23;;;11.00;99.90;;;;;;5073338;28;20461;-59
2024/04/02 04:59:58;;;;;;;5.07;1.00;;;11.10;99.90;;;;;;5073340;28;20441;-59
2024/04/02 05:02:25;;;;;;;1.40;0.73;;;11.00;99.90;;;;;;5073400;28;20540;-59
2024/04/02 05:04:51;;;;;;;2.60;0.90;;;11.00;99.90;;;;;;5073302;28;20198;-59
2024/04/02 05:07:25;;;;;;;4.40;1.13;;;11.00;99.90;;;;;;5073054;28;20855;-59
2024/04/02 05:09:52;;;;;;;4.37;1.30;;;10.90;99.90;;;;;;5073255;28;20224;-58
2024/04/02 05:12:19;;;;;;;5.07;1.37;;;11.00;99.90;;;;;;5073232;28;20448;-59
2024/04/02 05:14:45;;;;;;;5.93;1.60;;;11.00;99.90;;;;;;5073323;28;20445;-59
2024/04/02 05:17:11;;;;;;;4.83;0.90;;;11.00;99.90;;;;;;5073291;28;20980;-59
2024/04/02 05:19:37;;;;;;;6.20;1.40;;;11.00;99.90;;;;;;5073237;28;20209;-58
2024/04/02 05:22:06;;;;;;;3.70;1.50;;;11.00;99.90;;;;;;5073128;28;20527;-58
2024/04/02 05:24:32;;;;;;;5.40;1.43;;;11.00;99.90;;;;;;5073385;28;20202;-58
2024/04/02 05:27:02;;;;;;;4.63;1.63;;;11.10;99.90;;;;;;5072821;28;20554;-58
2024/04/02 05:29:28;;;;;;;5.10;1.70;;;11.00;99.90;;;;;;5073276;28;20433;-58
2024/04/02 05:31:55;;;;;;;4.20;1.30;;;11.10;99.90;;;;;;5073166;28;20467;-58
2024/04/02 05:34:21;;;;;;;5.60;2.03;;;11.00;99.90;;;;;;5072922;28;20451;-58
2024/04/02 05:36:48;;;;;;;6.37;1.93;;;11.00;99.90;;;;;;5072913;28;20523;-57
2024/04/02 05:39:13;;;;;;;4.50;1.83;;;11.00;99.90;;;;;;5072903;28;20451;-58
2024/04/02 05:41:40;;;;;;;8.73;1.90;;;11.00;99.90;;;;;;5072703;28;20540;-58
2024/04/02 05:44:07;;;;;;;4.03;1.57;;;11.00;99.90;;;;;;5072913;28;20206;-58
2024/04/02 05:46:34;;;;;;;3.60;1.13;;;11.00;99.90;;;;;;5072965;28;20452;-58
2024/04/02 05:49:00;;;;;;;8.17;1.57;;;11.00;99.90;;;;;;5072303;28;20488;-57
2024/04/02 05:51:27;;;;;;;2.70;1.10;;;11.00;99.90;;;;;;5072870;28;20532;-58
2024/04/02 05:53:52;;;;;;;3.10;1.50;;;11.00;99.90;;;;;;5072864;28;20250;-58
2024/04/02 05:56:19;;;;;;;7.93;1.97;;;11.10;99.90;;;;;;5073116;28;20536;-57
2024/04/02 05:58:45;;;;;;;1.43;1.23;;;11.10;99.90;;;;;;5072454;28;20708;-58
2024/04/02 06:01:13;;;;;;;2.93;1.33;;;11.10;99.90;;;;;;5073840;28;20444;-58
2024/04/02 06:03:41;;;;;;;6.40;1.50;;;11.10;99.90;;;;;;5076710;28;20210;-58
2024/04/02 06:06:08;;;;;;;2.93;1.80;;;11.10;99.90;;;;;;5076528;28;20455;-58
2024/04/02 06:08:33;;;;;;;4.00;1.47;;;11.10;99.90;;;;;;5076583;28;20503;-57
2024/04/02 06:11:00;;;;;;;4.00;1.30;;;11.20;99.90;;;;;;5076105;28;20444;-57
2024/04/02 06:13:26;;;;;;;4.70;1.63;;;11.20;99.90;;;;;;5076413;28;20228;-57
2024/04/02 06:15:53;;;;;;;3.93;1.87;;;11.30;99.90;;;;;;5076002;28;21013;-57
2024/04/02 06:18:23;;;;;;;5.50;1.80;;;11.40;99.90;;;;;;5076124;28;20465;-58
2024/04/02 06:20:57;;;;;;;4.10;1.30;;;11.40;99.90;;;;;;5076120;28;20490;-57
2024/04/02 06:23:23;;;;;;;6.80;1.63;;;11.50;99.90;;;;;;5076217;28;20425;-58
2024/04/02 06:25:50;;;;;;;12.00;2.20;;;11.50;99.90;;;;;;5076017;28;20870;-57
2024/04/02 06:28:17;;;;;;;3.63;1.53;;;11.60;99.90;;;;;;5075639;28;20242;-58
2024/04/02 06:30:43;;;;;;;4.00;1.40;;;11.60;99.90;;;;;;5076025;28;20449;-57
2024/04/02 06:33:09;;;;;;;7.83;1.67;;;11.70;99.90;;;;;;5076131;28;20455;-58
2024/04/02 06:35:37;;;;;;;6.37;1.60;;;11.70;99.90;;;;;;5075475;28;20452;-57
2024/04/02 06:38:05;;;;;;;7.37;2.10;;;11.80;99.90;;;;;;5075759;28;20602;-55
2024/04/02 06:40:32;;;;;;;5.13;1.60;;;11.90;99.90;;;;;;5075664;28;20459;-55
2024/04/02 06:42:59;;;;;;;5.53;1.77;;;11.90;99.90;;;;;;5075795;28;20449;-55
2024/04/02 06:45:26;;;;;;;5.90;2.23;;;12.00;99.90;;;;;;5075896;28;20459;-57
2024/04/02 06:47:53;;;;;;;9.47;1.77;;;12.00;99.90;;;;;;5075259;28;20523;-57
2024/04/02 06:50:19;;;;;;;4.73;1.33;;;12.00;99.90;;;;;;5075599;28;20449;-57
2024/04/02 06:52:47;;;;;;;6.70;2.40;;;12.10;99.90;;;;;;5075628;28;20969;-58
2024/04/02 06:55:13;;;;;;;5.87;2.03;;;12.20;99.90;;;;;;5075669;28;20205;-58
2024/04/02 06:57:39;;;;;;;12.00;2.07;;;12.20;99.90;;;;;;5075820;28;20457;-57
2024/04/02 07:00:07;;;;;;;8.33;1.90;;;12.30;99.90;;;;;;5075461;28;20441;-58
2024/04/02 07:02:34;;;;;;;9.20;1.90;;;12.30;99.80;;;;;;5075902;28;20441;-57
2024/04/02 07:05:00;;;;;;;15.80;2.43;;;12.40;99.70;;;;;;5075322;28;20449;-56
2024/04/02 07:07:27;;;;;;;4.63;1.50;;;12.40;99.50;;;;;;5074901;28;20494;-56
2024/04/02 07:09:54;;;;;;;12.43;2.00;;;12.40;99.60;;;;;;5075066;28;20229;-56
2024/04/02 07:12:21;;;;;;;4.90;1.57;;;12.50;99.70;;;;;;5075134;28;20449;-56
2024/04/02 07:14:46;;;;;;;7.90;2.10;;;12.50;99.20;;;;;;5074789;28;20443;-56
2024/04/02 07:17:13;;;;;;;8.87;1.90;;;12.50;99.20;;;;;;5075131;28;20460;-56
2024/04/02 07:19:39;;;;;;;8.20;2.27;;;12.60;98.30;;;;;;5075220;28;20198;-57
2024/04/02 07:22:06;;;;;;;4.20;1.30;;;12.60;98.20;;;;;;5074944;28;20441;-56
2024/04/02 07:24:32;;;;;;;5.60;2.20;;;12.70;98.30;;;;;;5074680;28;20673;-57
2024/04/02 07:27:00;;;;;;;5.03;1.93;;;12.70;98.20;;;;;;5074473;28;20478;-57
2024/04/02 07:29:26;;;;;;;6.07;2.53;;;12.70;98.10;;;;;;5074940;28;20228;-57
2024/04/02 07:31:52;;;;;;;8.40;2.20;;;12.70;98.00;;;;;;5074700;28;20528;-57
2024/04/02 07:34:18;;;;;;;4.37;1.47;;;12.60;97.90;;;;;;5074813;28;20209;-56
2024/04/02 07:36:45;;;;;;;6.57;1.53;;;12.60;98.10;;;;;;5074324;28;20440;-56
2024/04/02 07:39:11;;;;;;;7.73;1.60;;;12.50;97.80;;;;;;5074659;28;20221;-56
2024/04/02 07:41:37;;;;;;;6.67;2.00;;;12.50;97.60;;;;;;5074737;28;20934;-56
2024/04/02 07:44:05;;;;;;;8.90;1.83;;;12.40;97.00;;;;;;5074357;28;20213;-56
2024/04/02 07:46:32;;;;;;;5.10;1.67;;;12.40;97.30;;;;;;5074276;28;20961;-56
2024/04/02 07:48:57;;;;;;;6.20;1.90;;;12.40;97.70;;;;;;5074221;28;20495;-56
2024/04/02 07:51:24;;;;;;;4.40;1.77;;;12.40;97.30;;;;;;5074407;28;20440;-56
2024/04/02 07:53:50;;;;;;;8.43;2.20;;;12.40;97.50;;;;;;5074471;28;20202;-56
2024/04/02 07:56:17;;;;;;;8.93;1.87;;;12.40;97.60;;;;;;5074075;28;20809;-56
2024/04/02 07:58:42;;;;;;;5.20;1.63;;;12.50;97.70;;;;;;5074214;28;20222;-56
2024/04/02 08:01:11;;;;;;;5.67;1.60;;;12.60;97.00;;;;;;5074486;28;20524;-56
2024/04/02 08:03:36;;;;;;;6.37;2.33;;;12.60;96.10;;;;;;5074815;28;20205;-57
2024/04/02 08:06:04;;;;;;;4.27;1.40;;;12.70;96.40;;;;;;5075182;28;20444;-57
2024/04/02 08:08:30;;;;;;;6.63;1.80;;;12.70;96.30;;;;;;5074739;28;20237;-57
2024/04/02 08:10:56;;;;;;;7.77;1.47;;;12.70;96.10;;;;;;5074533;28;20965;-57
2024/04/02 08:13:23;;;;;;;5.40;2.33;;;12.70;96.20;;;;;;5074796;28;20508;-57
2024/04/02 08:15:49;;;;;;;5.70;1.50;;;12.90;96.20;;;;;;5074762;28;20212;-57
2024/04/02 08:18:17;;;;;;;6.57;1.60;;;13.00;96.40;;;;;;5075683;28;20558;-56
2024/04/02 08:20:43;;;;;;;8.50;1.93;;;13.20;96.30;;;;;;5075502;28;20205;-55
2024/04/02 08:23:09;;;;;;;9.10;2.10;;;13.20;95.80;;;;;;5073806;28;20444;-56
2024/04/02 08:25:35;;;;;;;9.13;1.97;;;13.40;95.30;;;;;;5072757;28;20202;-56
2024/04/02 08:28:02;;;;;;;3.37;1.90;;;13.40;95.10;;;;;;5073580;28;20575;-55
2024/04/02 08:30:28;;;;;;;9.70;2.20;;;13.30;95.10;;;;;;5073912;28;20445;-55
2024/04/02 08:32:55;;;;;;;7.10;1.50;;;13.00;95.70;;;;;;5073800;28;20529;-56
2024/04/02 08:35:22;;;;;;;20.47;3.63;;;12.90;96.30;;;;;;5073572;28;20203;-56
2024/04/02 08:37:49;;;;;;;6.90;1.73;;;12.80;96.70;;;;;;5073284;28;20465;-55
2024/04/02 08:40:15;;;;;;;7.30;1.60;;;12.90;96.80;;;;;;5073985;28;20527;-56
2024/04/02 08:42:43;;;;;;;5.00;1.57;;;12.80;96.50;;;;;;5073606;28;21001;-56
2024/04/02 08:45:09;;;;;;;10.03;2.07;;;12.80;96.70;;;;;;5073661;28;20208;-56
2024/04/02 08:47:38;;;;;;;14.93;2.07;;;12.70;96.80;;;;;;5073458;28;20489;-55
2024/04/02 08:50:06;;;;;;;3.47;1.47;;;12.60;96.90;;;;;;5073622;28;20436;-55
2024/04/02 08:52:35;;;;;;;3.07;1.43;;;12.40;97.30;;;;;;5073380;28;21004;-55
2024/04/02 08:55:01;;;;;;;7.00;1.90;;;12.30;97.70;;;;;;5073378;28;20459;-55
2024/04/02 08:57:30;;;;;;;6.10;1.63;;;12.20;97.90;;;;;;5073195;28;20464;-55
2024/04/02 08:59:57;;;;;;;11.27;2.03;;;12.30;98.60;;;;;;5073125;28;20455;-56
2024/04/02 09:02:24;;;;;;;6.53;2.63;;;12.30;99.10;;;;;;5073334;28;20522;-56
2024/04/02 09:04:52;;;;;;;10.00;1.73;;;12.50;99.10;;;;;;5073273;28;20448;-55
2024/04/02 09:07:19;;;;;;;4.87;1.43;;;12.70;99.10;;;;;;5073571;28;20457;-56
2024/04/02 09:09:46;;;;;;;8.77;1.53;;;12.80;98.20;;;;;;5073103;28;20443;-56
2024/04/02 09:12:13;;;;;;;6.33;2.33;;;12.80;98.00;;;;;;5073589;28;20455;-56
2024/04/02 09:14:39;;;;;;;6.13;1.37;;;13.00;97.30;;;;;;5073281;28;20443;-56
2024/04/02 09:17:07;;;;;;;5.87;2.90;;;13.00;98.00;;;;;;5073638;28;20540;-56
2024/04/02 09:19:32;;;;;;;6.07;1.30;;;13.00;97.50;;;;;;5073352;28;20198;-56
2024/04/02 09:21:59;;;;;;;14.03;1.80;;;13.00;97.50;;;;;;5073362;28;20491;-55
2024/04/02 09:24:25;;;;;;;7.50;1.70;;;13.10;97.60;;;;;;5073438;28;20208;-55
2024/04/02 09:26:54;;;;;;;4.37;1.33;;;13.20;96.90;;;;;;5072889;28;20814;-55
2024/04/02 09:29:20;;;;;;;8.52;1.70;;;13.20;96.70;;;;;;5072402;28;20461;-55
2024/04/02 09:31:49;;;;;;;5.13;1.33;;;13.30;96.40;;;;;;5073258;28;20305;-55
2024/04/02 09:34:17;;;;;;;4.50;1.40;;;13.20;96.50;;;;;;5073273;28;20208;-56
2024/04/02 09:36:47;;;;;;;4.97;1.93;;;13.10;96.80;;;;;;5074738;28;20440;-55
2024/04/02 09:39:14;;;;;;;6.37;1.30;;;12.90;96.90;;;;;;5077899;28;20437;-55
2024/04/02 09:41:42;;;;;;;6.07;1.80;;;12.70;97.10;;;;;;5077095;28;20495;-55
2024/04/02 09:44:14;;;;;;;10.10;2.53;;;12.70;97.70;;;;;;5077058;28;20441;-55
2024/04/02 09:46:42;;;;;;;3.83;1.23;;;12.80;97.80;;;;;;5077001;28;20428;-56
2024/04/02 09:49:10;;;;;;;7.30;1.40;;;13.00;98.30;;;;;;5076424;28;21012;-55
2024/04/02 09:51:39;;;;;;;7.40;1.50;;;13.00;96.80;;;;;;5076912;28;20502;-55
2024/04/02 09:54:05;;;;;;;4.10;1.70;;;13.10;96.70;;;;;;5068947;28;20440;-55
2024/04/02 09:56:33;;;;;;;5.43;1.30;;;13.00;96.90;;;;;;5076802;28;20490;-56
2024/04/02 09:59:00;;;;;;;3.30;1.40;;;13.20;96.50;;;;;;5076781;28;20895;-56
2024/04/02 10:01:31;;;;;;;4.90;1.50;;;13.40;96.10;;;;;;5076706;28;20453;-56
2024/04/02 10:04:01;;;;;;;2.87;1.50;;;13.50;96.60;;;;;;5077401;28;20429;-56
2024/04/02 10:06:29;;;;;;;3.07;1.10;;;13.70;96.10;;;;;;5076703;28;20439;-56
2024/04/02 10:08:58;;;;;;;6.00;1.83;;;14.00;95.30;;;;;;5076248;28;20495;-55
2024/04/02 10:11:36;;;;;;;6.83;1.63;;;14.20;94.70;;;;;;5076534;28;20476;-56
2024/04/02 10:14:06;;;;;;;6.93;1.20;;;14.40;94.10;;;;;;5076506;28;20427;-56
2024/04/02 10:16:35;;;;;;;3.73;1.20;;;14.50;93.20;;;;;;5076413;28;20807;-56
2024/04/02 10:19:02;;;;;;;5.40;1.30;;;14.60;93.40;;;;;;5076318;28;20555;-57
2024/04/02 10:21:31;;;;;;;4.00;1.20;;;14.60;93.20;;;;;;5076424;28;20451;-56
2024/04/02 10:23:57;;;;;;;5.10;1.60;;;14.60;94.10;;;;;;5076417;28;20448;-57
2024/04/02 10:26:24;;;;;;;6.47;1.63;;;14.80;93.90;;;;;;5076353;28;20444;-56
2024/04/02 10:28:54;;;;;;;3.23;0.97;;;15.00;93.50;;;;;;5075627;28;20862;-56
2024/04/02 10:31:21;;;;;;;3.93;1.43;;;15.10;92.60;;;;;;5076113;28;20425;-56
2024/04/02 10:33:50;;;;;;;4.10;1.90;;;15.20;92.70;;;;;;5075642;28;20454;-56
2024/04/02 10:36:18;;;;;;;5.77;2.10;;;15.40;91.80;;;;;;5075648;28;20538;-56
2024/04/02 10:38:44;;;;;;;6.73;1.30;;;15.30;91.80;;;;;;5075385;28;20979;-56
2024/04/02 10:41:11;;;;;;;5.97;1.60;;;15.20;92.40;;;;;;5075760;28;20447;-56
2024/04/02 10:43:37;;;;;;;3.97;1.20;;;15.40;93.00;;;;;;5075844;28;20451;-56
2024/04/02 10:46:06;;;;;;;4.57;2.03;;;15.40;92.10;;;;;;5075752;28;20835;-56
2024/04/02 10:48:31;;;;;;;5.40;1.50;;;15.30;91.20;;;;;;5065317;28;20226;-56
2024/04/02 10:50:59;;;;;;;6.03;1.57;;;15.10;92.20;;;;;;5074541;28;20450;-56
2024/04/02 10:53:26;;;;;;;5.80;1.87;;;14.80;92.60;;;;;;5075732;28;20205;-56
2024/04/02 10:55:53;;;;;;;6.40;1.30;;;14.80;93.30;;;;;;5075287;28;20498;-56
2024/04/02 10:58:19;;;;;;;13.13;2.50;;;14.70;93.20;;;;;;5075439;28;20464;-56
2024/04/02 11:00:46;;;;;;;3.27;1.20;;;14.70;93.70;;;;;;5075539;28;21026;-57
2024/04/02 11:03:13;;;;;;;7.60;1.73;;;14.60;95.00;;;;;;5075532;28;20198;-57
2024/04/02 11:05:40;;;;;;;6.63;1.30;;;14.40;96.60;;;;;;5075389;28;20445;-58
2024/04/02 11:08:09;;;;;;;4.13;1.30;;;14.40;97.20;;;;;;5075198;28;20492;-58
2024/04/02 11:10:36;;;;;;;5.03;1.50;;;14.40;97.70;;;;;;5075088;28;20449;-57
2024/04/02 11:13:01;;;;;;;3.93;1.33;;;14.50;97.10;;;;;;5074882;28;20793;-57
2024/04/02 11:15:28;;;;;;;5.60;1.10;;;14.40;96.80;;;;;;5075794;28;20451;-57
2024/04/02 11:17:54;;;;;;;2.67;1.40;;;14.30;97.00;;;;;;5074762;28;20603;-56
2024/04/02 11:20:21;;;;;;;9.23;1.43;;;14.20;96.90;;;;;;5075093;28;20440;-57
2024/04/02 11:25:34;;;;;;;3.63;1.30;;;14.10;97.10;;;;;;5075240;28;20416;-57
2024/04/02 11:28:04;;;;;;;3.73;1.60;;;14.10;97.50;;;;;;5074648;28;20487;-57
2024/04/02 11:30:30;;;;;;;5.87;1.73;;;14.20;97.50;;;;;;5075009;28;20455;-57
2024/04/02 11:32:57;;;;;;;3.77;1.23;;;14.30;96.90;;;;;;5075197;28;20444;-57
2024/04/02 11:35:23;;;;;;;4.90;1.43;;;14.40;97.60;;;;;;5074575;28;20208;-57
2024/04/02 11:37:50;;;;;;;4.83;1.47;;;14.50;97.70;;;;;;5074269;28;20547;-57
2024/04/02 11:40:16;;;;;;;5.53;1.67;;;14.50;97.40;;;;;;5074673;28;20586;-57
2024/04/02 11:42:45;;;;;;;7.53;1.17;;;14.50;97.70;;;;;;5074380;28;20962;-58
2024/04/02 11:45:11;;;;;;;1.53;0.63;;;14.50;97.70;;;;;;5074696;28;20449;-57
2024/04/02 11:47:38;;;;;;;3.17;0.87;;;14.50;97.00;;;;;;5074480;28;20522;-57
2024/04/02 11:50:05;;;;;;;2.97;1.00;;;14.40;96.70;;;;;;5074404;28;20480;-57
2024/04/02 11:52:34;;;;;;;3.67;1.00;;;14.30;96.80;;;;;;5074456;28;21020;-57
2024/04/02 11:55:00;;;;;;;2.50;1.13;;;14.30;96.90;;;;;;5074341;28;20436;-56
2024/04/02 12:00:15;;;;;;;2.97;1.10;;;14.30;97.40;;;;;;5074284;28;20182;-57
2024/04/02 12:02:42;;;;;;;5.63;1.30;;;14.20;97.40;;;;;;5074338;28;20436;-57
2024/04/02 12:05:10;;;;;;;4.40;1.20;;;14.20;97.20;;;;;;5074142;28;20445;-57
2024/04/02 12:07:38;;;;;;;3.93;1.10;;;14.20;98.00;;;;;;5074134;28;20839;-57
2024/04/02 12:10:05;;;;;;;4.93;1.30;;;14.10;97.10;;;;;;5073942;28;20484;-57
2024/04/02 12:12:32;;;;;;;2.60;0.90;;;13.90;97.40;;;;;;5074090;28;20817;-57
2024/04/02 12:14:59;;;;;;;5.70;1.73;;;13.80;97.60;;;;;;5073751;28;20451;-57
2024/04/02 12:17:27;;;;;;;3.00;1.33;;;13.60;98.30;;;;;;5073896;28;20499;-56
2024/04/02 12:19:55;;;;;;;2.53;1.10;;;13.40;99.50;;;;;;5073889;28;20440;-57
2024/04/02 12:22:22;;;;;;;3.00;0.97;;;13.40;99.30;;;;;;5073803;28;20445;-57
2024/04/02 12:24:48;;;;;;;3.33;1.23;;;13.30;99.20;;;;;;5073763;28;20444;-58
2024/04/02 12:27:15;;;;;;;4.47;1.07;;;13.40;99.90;;;;;;5073395;28;20472;-57
2024/04/02 12:29:41;;;;;;;7.20;1.90;;;13.40;99.90;;;;;;5073299;28;20491;-57
2024/04/02 12:32:08;;;;;;;4.63;1.00;;;13.50;99.90;;;;;;5073370;28;20444;-57
2024/04/02 12:34:35;;;;;;;5.60;1.20;;;13.70;99.90;;;;;;5073639;28;20612;-58
2024/04/02 12:37:03;;;;;;;4.30;1.23;;;13.80;99.50;;;;;;5073807;28;20469;-58
2024/04/02 12:39:29;;;;;;;4.27;1.40;;;13.80;99.60;;;;;;5073864;28;20437;-58
2024/04/02 12:41:56;;;;;;;6.80;2.33;;;13.90;99.70;;;;;;5073350;28;20445;-57
2024/04/02 12:44:22;;;;;;;4.07;1.37;;;14.00;99.00;;;;;;5073773;28;20456;-57
2024/04/02 12:46:48;;;;;;;4.53;1.50;;;14.00;98.60;;;;;;5073467;28;20444;-56
2024/04/02 12:49:15;;;;;;;5.97;1.27;;;14.10;98.20;;;;;;5073467;28;20225;-56